Terminal Aerodrome Forecast
Issued by NWS

Home | Current Version | Previous Version | Text Only | Print | Product List | Glossary Off
Versions: 1 2 3 4 5 6 7 8 9 10 11 12 13 14 15 16

421
FTUS43 KBIS 200534
TAFJMS
TAF
KJMS 200534Z 2006/2106 16005KT P6SM SKC
     FM200700 17006KT P6SM SKC WS020/22030KT
     FM201100 18010KT P6SM FEW250 WS020/22035KT
     FM201500 17015G23KT P6SM FEW250 WS020/19035KT
     FM202000 17020G28KT P6SM SCT250
     FM202300 17018G26KT P6SM SCT250 WS020/18040KT=

USA.gov is the U.S. government's official web portal to all federal, state and local government web resources and services.